Time;durP1;ratioP1;P1;durP2;ratioP2;P2;SDS_P1;SDS_P2;PMS_P1;PMS_P2;Temp;Humidity;BMP_temperature;BMP_pressure;BME280_temperature;BME280_humidity;BME280_pressure;Samples;Min_cycle;Max_cycle;Signal;HPM_P1;HPM_P2
2021/06/17 00:01:22;;;;;;;6.13;4.70;;;;;;;20.07;71.84;98085.41;4995670;28;20057;-75
2021/06/17 00:03:48;;;;;;;6.85;4.45;;;;;;;20.04;72.02;98080.56;4994957;28;20030;-75
2021/06/17 00:06:13;;;;;;;6.32;4.38;;;;;;;20.00;72.05;98085.22;5012673;28;20076;-74
2021/06/17 00:08:39;;;;;;;8.75;4.03;;;;;;;19.98;72.15;98095.88;5012438;28;20028;-74
2021/06/17 00:11:04;;;;;;;7.22;4.53;;;;;;;19.98;72.19;98082.00;4994920;28;20032;-74
2021/06/17 00:13:33;;;;;;;7.57;4.25;;;;;;;19.98;71.97;98087.53;5012546;28;20030;-74
2021/06/17 00:16:00;;;;;;;6.18;4.93;;;;;;;19.99;71.83;98089.13;5012394;28;20029;-76
2021/06/17 00:18:27;;;;;;;4.80;4.00;;;;;;;19.93;72.02;98087.78;5012309;28;20033;-74
2021/06/17 00:20:53;;;;;;;8.13;4.15;;;;;;;19.92;72.11;98088.97;5012265;28;20026;-74
2021/06/17 00:23:18;;;;;;;6.22;4.70;;;;;;;19.91;72.29;98087.34;5010850;28;20088;-75
2021/06/17 00:25:44;;;;;;;6.88;4.78;;;;;;;19.89;72.41;98084.06;5012007;28;20068;-75
2021/06/17 00:28:11;;;;;;;10.93;6.10;;;;;;;19.88;72.50;98090.81;5012131;28;20063;-74
2021/06/17 00:30:37;;;;;;;4.38;3.78;;;;;;;19.85;72.60;98087.94;5012420;28;20483;-75
2021/06/17 00:33:03;;;;;;;7.10;5.07;;;;;;;19.71;72.38;98085.53;5015242;28;20467;-76
2021/06/17 00:35:29;;;;;;;7.47;4.82;;;;;;;19.49;71.91;98086.88;5014569;28;20052;-74
2021/06/17 00:37:55;;;;;;;4.75;4.25;;;;;;;19.51;72.00;98083.75;5012078;28;20026;-75
2021/06/17 00:40:21;;;;;;;7.05;3.78;;;;;;;19.49;71.81;98081.31;4994421;28;20033;-74
2021/06/17 00:42:50;;;;;;;5.38;3.97;;;;;;;19.45;72.14;98090.72;4994104;28;20162;-73
2021/06/17 00:45:41;;;;;;;9.43;4.07;;;;;;;19.45;72.09;98079.59;4994165;28;20030;-73
2021/06/17 00:48:07;;;;;;;7.75;4.47;;;;;;;19.36;72.15;98076.91;5011648;28;20038;-73
2021/06/17 00:50:40;;;;;;;7.32;4.95;;;;;;;19.26;73.07;98080.97;5012074;28;20034;-73
2021/06/17 00:53:08;;;;;;;6.53;3.95;;;;;;;19.21;73.28;98084.00;4994305;28;20442;-75
2021/06/17 00:55:34;;;;;;;8.23;4.45;;;;;;;19.15;73.47;98073.47;5011642;28;20018;-73
2021/06/17 00:58:00;;;;;;;8.48;3.67;;;;;;;19.16;73.61;98075.13;5011374;28;20058;-74
2021/06/17 01:00:25;;;;;;;7.68;4.97;;;;;;;19.11;73.96;98073.38;5011782;28;20094;-74
2021/06/17 01:02:50;;;;;;;7.20;4.55;;;;;;;19.06;74.36;98078.34;5011738;28;20474;-74
2021/06/17 01:05:19;;;;;;;6.25;4.40;;;;;;;19.08;74.54;98076.84;5011369;28;20068;-73
2021/06/17 01:08:02;;;;;;;7.85;5.00;;;;;;;19.12;74.56;98077.78;5011205;28;20053;-73
2021/06/17 01:10:36;;;;;;;8.25;5.35;;;;;;;19.14;74.68;98074.63;5011417;28;20033;-73
2021/06/17 01:13:23;;;;;;;6.38;5.35;;;;;;;19.19;74.72;98080.78;5011224;28;20483;-75
2021/06/17 01:16:02;;;;;;;7.78;4.82;;;;;;;19.16;75.11;98067.59;5010212;28;20026;-75
2021/06/17 01:18:29;;;;;;;6.75;4.80;;;;;;;19.12;75.45;98072.22;5011861;28;20022;-74
2021/06/17 01:20:57;;;;;;;9.60;4.65;;;;;;;19.14;75.37;98072.66;5012126;28;20049;-75
2021/06/17 01:24:02;;;;;;;5.90;4.25;;;;;;;19.10;75.76;98077.31;5011972;28;20084;-74
2021/06/17 01:26:31;;;;;;;5.60;4.53;;;;;;;18.96;76.61;98076.84;5011182;28;20064;-74
2021/06/17 01:28:57;;;;;;;12.68;5.07;;;;;;;18.89;76.79;98062.75;5011111;28;20124;-76
2021/06/17 01:31:27;;;;;;;7.32;5.35;;;;;;;18.83;77.08;98061.38;5011744;28;20030;-75
2021/06/17 01:33:55;;;;;;;10.40;5.45;;;;;;;18.82;77.23;98062.53;5011008;28;20116;-74
2021/06/17 01:36:40;;;;;;;9.63;4.82;;;;;;;18.80;77.24;98062.06;5010753;28;20049;-74
2021/06/17 01:39:08;;;;;;;7.75;4.90;;;;;;;18.78;77.32;98064.38;5011048;28;20029;-74
2021/06/17 01:41:38;;;;;;;5.68;4.65;;;;;;;18.78;77.47;98063.56;4993206;28;20034;-73
2021/06/17 01:44:06;;;;;;;7.53;4.43;;;;;;;18.67;77.84;98052.94;5010985;28;20103;-74
2021/06/17 01:46:33;;;;;;;5.72;4.35;;;;;;;18.62;78.12;98057.91;5010950;28;20018;-75
2021/06/17 01:48:59;;;;;;;6.22;4.60;;;;;;;18.66;78.20;98053.28;5010946;28;20041;-76
2021/06/17 01:51:26;;;;;;;5.40;4.57;;;;;;;18.64;78.07;98053.63;5010673;28;20022;-74
2021/06/17 01:53:52;;;;;;;7.60;5.18;;;;;;;18.61;78.17;98059.03;5010697;28;20072;-74
2021/06/17 01:56:20;;;;;;;9.48;4.55;;;;;;;18.31;78.57;98058.41;5010800;28;20460;-73
2021/06/17 01:58:49;;;;;;;7.13;4.82;;;;;;;18.15;79.26;98061.03;5009440;28;20034;-75
2021/06/17 02:01:16;;;;;;;6.57;5.55;;;;;;;18.01;79.73;98065.25;5011237;28;20058;-74
2021/06/17 02:03:44;;;;;;;6.05;4.88;;;;;;;17.92;80.27;98061.72;5009244;28;20034;-74
2021/06/17 02:06:18;;;;;;;6.72;4.70;;;;;;;17.92;80.27;98048.72;5010694;28;20417;-74
2021/06/17 02:08:51;;;;;;;6.80;5.07;;;;;;;17.95;80.04;98045.25;5010405;28;20120;-73
2021/06/17 02:11:17;;;;;;;5.47;4.93;;;;;;;17.94;80.14;98043.66;5010560;28;20104;-73
2021/06/17 02:13:43;;;;;;;7.75;5.28;;;;;;;17.99;80.10;98048.97;5010563;28;20486;-74
2021/06/17 02:16:09;;;;;;;7.07;5.70;;;;;;;18.08;79.98;98059.94;5010686;28;20030;-74
2021/06/17 02:18:37;;;;;;;5.82;5.03;;;;;;;18.06;80.41;98046.47;5010312;28;20117;-74
2021/06/17 02:21:04;;;;;;;12.02;5.15;;;;;;;18.11;80.25;98051.78;5009263;28;20034;-74
2021/06/17 02:23:32;;;;;;;8.23;5.30;;;;;;;18.10;80.52;98046.59;5010303;28;20041;-74
2021/06/17 02:25:58;;;;;;;5.80;4.75;;;;;;;18.08;80.61;98049.69;5009185;28;20030;-73
2021/06/17 02:28:27;;;;;;;5.45;4.68;;;;;;;18.12;80.51;98047.88;5010231;28;20036;-74
2021/06/17 02:30:58;;;;;;;6.68;4.88;;;;;;;18.17;80.32;98055.94;5010640;28;20017;-74
2021/06/17 02:33:24;;;;;;;8.27;4.68;;;;;;;18.17;80.07;98044.06;5010429;28;20054;-73
2021/06/17 02:35:54;;;;;;;5.43;4.72;;;;;;;18.19;80.04;98055.63;5010365;28;20038;-74
2021/06/17 02:38:26;;;;;;;6.35;4.57;;;;;;;18.19;80.04;98047.31;5010228;28;20038;-74
2021/06/17 02:40:57;;;;;;;8.35;4.78;;;;;;;18.08;80.58;98055.22;5010563;28;20033;-74
2021/06/17 02:43:24;;;;;;;7.57;6.32;;;;;;;17.94;81.33;98049.19;5010059;28;20034;-73
2021/06/17 02:45:50;;;;;;;7.32;4.78;;;;;;;17.88;82.03;98047.78;5010310;28;20467;-73
2021/06/17 02:48:16;;;;;;;5.40;4.75;;;;;;;17.91;81.75;98049.88;5010096;28;20567;-73
2021/06/17 02:50:43;;;;;;;8.20;5.00;;;;;;;17.94;81.57;98042.84;5014253;28;20483;-74
2021/06/17 02:53:08;;;;;;;7.30;5.32;;;;;;;17.91;81.81;98038.00;5017114;28;20113;-74
2021/06/17 02:55:34;;;;;;;7.47;4.95;;;;;;;17.94;81.67;98042.84;5013981;28;20109;-72
2021/06/17 02:58:00;;;;;;;5.30;4.80;;;;;;;17.92;81.71;98040.41;5001359;28;20034;-73
2021/06/17 03:00:29;;;;;;;8.10;5.30;;;;;;;17.91;82.02;98040.75;5013511;28;20076;-73
2021/06/17 03:03:00;;;;;;;6.47;5.38;;;;;;;17.86;82.26;98036.22;5002461;28;20081;-74
2021/06/17 03:05:41;;;;;;;6.18;4.60;;;;;;;17.84;82.51;98038.53;4993761;28;20026;-73
2021/06/17 03:08:22;;;;;;;5.07;4.47;;;;;;;17.84;82.31;98037.72;4993868;28;20039;-74
2021/06/17 03:10:51;;;;;;;7.03;4.93;;;;;;;17.83;82.33;98042.44;4993531;28;20595;-74
2021/06/17 03:13:21;;;;;;;8.07;5.57;;;;;;;17.78;82.85;98034.38;4992371;28;20470;-73
2021/06/17 03:15:49;;;;;;;9.43;5.85;;;;;;;17.73;83.05;98031.81;5010263;28;20080;-75
2021/06/17 03:18:15;;;;;;;6.03;5.28;;;;;;;17.58;83.50;98024.94;5013260;28;20548;-73
2021/06/17 03:20:43;;;;;;;10.25;6.07;;;;;;;17.50;84.15;98023.03;5013320;28;20034;-73
2021/06/17 03:23:14;;;;;;;5.82;5.25;;;;;;;17.51;83.85;98019.13;4995198;28;20040;-74
2021/06/17 03:25:41;;;;;;;8.18;4.95;;;;;;;17.61;83.71;98034.53;5013280;28;20040;-75
2021/06/17 03:28:09;;;;;;;4.85;4.30;;;;;;;17.67;83.26;98033.16;5012871;28;20045;-75
2021/06/17 03:30:35;;;;;;;6.18;5.03;;;;;;;17.73;83.51;98042.09;5013093;28;20038;-75
2021/06/17 03:33:02;;;;;;;6.70;5.10;;;;;;;17.74;83.37;98027.06;5013225;28;20099;-73
2021/06/17 03:35:28;;;;;;;8.13;5.18;;;;;;;17.79;83.12;98038.78;5012788;28;20359;-75
2021/06/17 03:37:56;;;;;;;6.25;5.22;;;;;;;17.80;82.91;98023.75;5012508;28;20029;-75
2021/06/17 03:40:23;;;;;;;8.77;4.60;;;;;;;17.95;82.63;98038.94;5011504;28;20022;-75
2021/06/17 03:42:51;;;;;;;8.65;5.47;;;;;;;18.05;82.46;98028.22;5012580;28;20117;-73
2021/06/17 03:45:18;;;;;;;7.72;5.32;;;;;;;18.18;81.83;98031.84;5012774;28;20163;-75
2021/06/17 03:47:47;;;;;;;8.55;5.00;;;;;;;18.29;81.18;98024.72;5017113;28;20050;-76
2021/06/17 03:50:15;;;;;;;7.85;4.88;;;;;;;18.39;81.02;98034.50;5014933;28;20069;-77
2021/06/17 03:52:44;;;;;;;10.05;5.47;;;;;;;18.37;80.39;98022.97;4992803;28;20038;-75
2021/06/17 03:55:12;;;;;;;11.77;5.40;;;;;;;18.51;79.76;98029.03;4992928;28;20027;-77
2021/06/17 03:57:37;;;;;;;8.20;5.18;;;;;;;18.67;78.49;98036.31;4992648;28;20194;-76
2021/06/17 04:00:03;;;;;;;8.40;5.05;;;;;;;18.73;78.23;98036.91;4992448;28;20572;-76
2021/06/17 04:02:30;;;;;;;6.03;4.38;;;;;;;18.85;77.15;98041.63;4992209;28;20117;-75
2021/06/17 04:04:55;;;;;;;15.52;4.68;;;;;;;19.00;76.20;98038.97;4993085;28;20041;-76
2021/06/17 04:07:23;;;;;;;13.90;4.75;;;;;;;19.19;75.61;98036.41;4992434;28;20462;-75
2021/06/17 04:09:50;;;;;;;8.65;4.63;;;;;;;19.12;75.80;98035.34;4992354;28;20841;-75
2021/06/17 04:12:21;;;;;;;6.32;5.65;;;;;;;19.31;75.64;98040.28;4992786;28;20022;-76
2021/06/17 04:14:51;;;;;;;6.40;4.28;;;;;;;19.41;74.99;98039.84;4992674;28;20149;-75
2021/06/17 04:17:21;;;;;;;5.25;4.60;;;;;;;19.49;74.19;98053.56;4992796;28;20041;-80
2021/06/17 04:19:48;;;;;;;5.47;4.75;;;;;;;19.55;73.71;98043.03;4992790;28;20101;-77
2021/06/17 04:22:15;;;;;;;6.95;4.95;;;;;;;19.75;73.07;98044.81;4992638;28;20037;-76
2021/06/17 04:24:44;;;;;;;8.80;4.95;;;;;;;20.05;71.55;98053.56;4992744;28;20031;-77
2021/06/17 04:27:11;;;;;;;8.45;5.70;;;;;;;20.11;71.09;98052.97;4992830;28;20064;-75
2021/06/17 04:29:39;;;;;;;7.82;5.35;;;;;;;20.15;70.51;98050.28;4992674;28;20027;-75
2021/06/17 04:32:07;;;;;;;7.50;5.15;;;;;;;20.22;70.14;98051.31;4975432;28;20783;-75
2021/06/17 04:34:34;;;;;;;6.60;5.70;;;;;;;20.13;69.27;98061.78;4975228;28;20073;-76
2021/06/17 04:37:01;;;;;;;8.02;5.15;;;;;;;20.06;68.95;98058.78;4974760;28;20038;-75
2021/06/17 04:39:27;;;;;;;8.65;4.70;;;;;;;19.87;69.40;98052.28;4991848;28;20376;-76
2021/06/17 04:41:53;;;;;;;7.47;4.60;;;;;;;19.91;69.10;98059.56;4992432;28;20029;-74
2021/06/17 04:44:21;;;;;;;5.43;4.78;;;;;;;19.50;70.70;98054.38;4991783;28;20033;-74
2021/06/17 04:46:47;;;;;;;7.28;5.18;;;;;;;19.58;70.54;98050.66;5005243;28;20769;-75
2021/06/17 04:49:15;;;;;;;10.02;5.60;;;;;;;19.66;70.21;98055.25;4998853;28;20025;-75
2021/06/17 04:51:42;;;;;;;7.05;5.43;;;;;;;19.73;69.83;98066.59;5001439;28;20406;-76
2021/06/17 04:54:08;;;;;;;7.47;5.28;;;;;;;19.68;70.30;98058.47;5003123;28;20030;-77
2021/06/17 04:56:37;;;;;;;6.28;4.32;;;;;;;19.77;70.32;98050.81;4987898;28;20014;-76
2021/06/17 04:59:02;;;;;;;5.68;4.78;;;;;;;19.85;69.78;98041.53;5001483;28;20090;-74
2021/06/17 05:01:28;;;;;;;12.45;6.00;;;;;;;19.97;69.71;98055.38;4992309;28;20038;-79
2021/06/17 05:03:53;;;;;;;7.57;4.72;;;;;;;19.89;69.90;98050.75;4974277;28;20380;-74
2021/06/17 05:06:20;;;;;;;12.10;6.22;;;;;;;19.78;70.71;98056.03;4991964;28;20113;-75
2021/06/17 05:11:29;;;;;;;6.80;5.43;;;;;;;19.86;71.28;98050.69;5000165;28;20034;-75
2021/06/17 05:13:55;;;;;;;11.80;6.75;;;;;;;19.58;72.41;98056.19;4993704;28;20034;-74
2021/06/17 05:16:20;;;;;;;11.05;6.18;;;;;;;19.37;73.89;98061.91;4996166;28;20034;-76
2021/06/17 05:18:49;;;;;;;11.55;6.05;;;;;;;19.27;74.47;98056.81;4981305;28;20018;-74
2021/06/17 05:21:15;;;;;;;8.65;5.97;;;;;;;19.32;74.30;98066.88;5000124;28;20487;-75
2021/06/17 05:23:40;;;;;;;8.75;6.72;;;;;;;19.24;75.01;98066.66;5000392;28;20073;-81
2021/06/17 05:26:07;;;;;;;14.57;7.50;;;;;;;19.20;75.53;98070.50;4981975;28;20032;-78
2021/06/17 05:28:33;;;;;;;7.05;5.90;;;;;;;19.27;75.67;98068.72;5000585;28;20034;-74
2021/06/17 05:31:01;;;;;;;14.73;6.43;;;;;;;19.45;75.61;98077.63;5001030;28;20044;-75
2021/06/17 05:33:28;;;;;;;8.65;7.05;;;;;;;19.48;74.71;98076.13;4992420;28;20021;-74
2021/06/17 05:35:53;;;;;;;15.00;7.95;;;;;;;19.67;74.68;98079.09;4991756;28;20030;-75
2021/06/17 05:38:21;;;;;;;14.40;8.70;;;;;;;19.88;74.46;98087.22;4990099;28;20033;-75
2021/06/17 05:40:47;;;;;;;10.45;8.07;;;;;;;19.88;74.27;98079.72;4990900;28;20057;-74
2021/06/17 05:43:13;;;;;;;14.63;8.18;;;;;;;19.90;74.22;98082.94;4990736;28;20042;-74
2021/06/17 05:45:41;;;;;;;13.63;7.00;;;;;;;20.09;73.23;98085.03;4973573;28;20125;-74
2021/06/17 05:48:07;;;;;;;15.93;8.05;;;;;;;20.18;73.49;98080.94;4973465;28;20043;-73
2021/06/17 05:50:33;;;;;;;12.35;8.48;;;;;;;20.41;71.78;98089.56;4990569;28;20450;-75
2021/06/17 05:52:58;;;;;;;15.27;8.52;;;;;;;20.45;71.44;98079.34;4990771;28;20125;-74
2021/06/17 05:55:26;;;;;;;10.85;8.70;;;;;;;20.49;71.44;98083.00;4990915;28;20030;-72
2021/06/17 05:57:51;;;;;;;10.57;8.05;;;;;;;20.59;71.73;98078.88;4973485;28;20502;-74
2021/06/17 06:00:17;;;;;;;10.60;7.68;;;;;;;20.76;71.00;98084.94;4989599;28;20061;-74
2021/06/17 06:02:44;;;;;;;13.48;7.28;;;;;;;20.89;70.46;98087.59;4991258;28;20045;-74
2021/06/17 06:05:10;;;;;;;11.48;6.85;;;;;;;21.03;68.89;98091.53;4986074;28;20026;-75
2021/06/17 06:07:38;;;;;;;11.60;7.35;;;;;;;21.04;68.60;98095.94;4992857;28;20166;-74
2021/06/17 06:10:04;;;;;;;9.93;7.22;;;;;;;21.19;68.44;98097.94;4983748;28;20485;-74
2021/06/17 06:12:29;;;;;;;11.73;7.55;;;;;;;21.20;67.96;98101.53;4980030;28;20109;-74
2021/06/17 06:14:55;;;;;;;12.73;6.82;;;;;;;21.23;68.02;98100.78;4999631;28;20030;-74
2021/06/17 06:17:20;;;;;;;10.48;6.95;;;;;;;21.42;68.27;98105.59;5000148;28;20042;-74
2021/06/17 06:19:45;;;;;;;12.93;8.18;;;;;;;21.53;67.67;98106.66;4980533;28;20108;-74
2021/06/17 06:22:11;;;;;;;13.30;7.50;;;;;;;21.55;66.94;98105.09;4999806;28;20041;-77
2021/06/17 06:24:40;;;;;;;9.77;6.70;;;;;;;21.70;66.15;98107.06;4985576;28;20045;-74
2021/06/17 06:27:07;;;;;;;12.50;7.65;;;;;;;21.65;65.83;98100.94;5002320;28;20029;-74
2021/06/17 06:29:32;;;;;;;14.70;7.40;;;;;;;21.45;66.56;98104.88;5003830;28;20022;-74
2021/06/17 06:31:58;;;;;;;12.15;6.63;;;;;;;21.41;66.66;98098.41;5004076;28;20032;-74
2021/06/17 06:34:25;;;;;;;13.23;7.70;;;;;;;21.42;66.57;98100.03;4992821;28;20398;-75
2021/06/17 06:36:50;;;;;;;14.38;8.25;;;;;;;21.45;66.52;98099.31;5002366;28;20022;-74
2021/06/17 06:39:17;;;;;;;15.82;7.78;;;;;;;21.34;66.45;98105.44;4985384;28;20022;-74
2021/06/17 06:41:43;;;;;;;12.98;6.60;;;;;;;21.41;66.83;98104.78;5004303;28;20064;-74
2021/06/17 06:44:10;;;;;;;12.40;8.25;;;;;;;21.56;66.38;98111.47;5002400;28;20390;-74
2021/06/17 06:46:44;;;;;;;10.07;7.28;;;;;;;21.52;66.20;98105.06;4985176;28;20556;-77
2021/06/17 06:49:10;;;;;;;8.35;6.97;;;;;;;21.56;65.60;98101.16;5002146;28;20019;-74
2021/06/17 06:51:39;;;;;;;12.30;7.13;;;;;;;21.76;65.75;98115.94;5003177;28;20033;-75
2021/06/17 06:54:05;;;;;;;9.30;6.47;;;;;;;22.07;64.09;98121.41;5004463;28;20052;-74
2021/06/17 06:56:30;;;;;;;16.50;6.80;;;;;;;22.18;63.18;98116.84;4999353;28;20053;-76
2021/06/17 06:58:56;;;;;;;9.73;7.07;;;;;;;22.33;62.33;98117.97;5002823;28;20657;-75
2021/06/17 07:01:21;;;;;;;14.10;8.32;;;;;;;22.40;62.20;98118.88;4986618;28;20133;-74
2021/06/17 07:03:47;;;;;;;13.68;7.03;;;;;;;22.50;62.03;98128.63;5004090;28;20041;-74
2021/06/17 07:06:12;;;;;;;14.48;6.20;;;;;;;22.59;62.58;98131.19;5001936;28;20037;-74
2021/06/17 07:08:37;;;;;;;13.05;6.75;;;;;;;22.69;61.83;98127.81;5003374;28;20022;-75
2021/06/17 07:11:03;;;;;;;9.23;6.55;;;;;;;22.80;61.60;98121.28;5004230;28;20075;-74
2021/06/17 07:13:29;;;;;;;12.43;7.47;;;;;;;22.78;61.07;98122.78;5003944;28;20042;-74
2021/06/17 07:15:55;;;;;;;6.47;5.78;;;;;;;22.86;60.77;98125.38;5001837;28;20113;-74
2021/06/17 07:18:20;;;;;;;8.80;6.80;;;;;;;22.88;61.24;98122.19;5001351;28;20109;-74
2021/06/17 07:20:46;;;;;;;13.10;7.80;;;;;;;22.96;60.50;98115.56;5003370;28;20033;-74
2021/06/17 07:23:11;;;;;;;9.90;6.10;;;;;;;23.06;60.07;98123.28;5001347;28;20155;-75
2021/06/17 07:25:37;;;;;;;9.77;6.07;;;;;;;23.14;60.17;98115.84;5003136;28;20030;-76
2021/06/17 07:28:03;;;;;;;8.50;6.15;;;;;;;23.24;59.20;98113.22;5003927;28;20076;-75
2021/06/17 07:30:28;;;;;;;7.45;6.03;;;;;;;23.36;58.97;98115.81;5013437;28;20110;-77
2021/06/17 07:32:54;;;;;;;11.55;5.85;;;;;;;23.52;58.14;98117.69;5005051;28;20053;-73
2021/06/17 07:35:19;;;;;;;8.23;5.82;;;;;;;23.60;58.32;98114.59;5002215;28;20391;-74
2021/06/17 07:37:46;;;;;;;9.45;6.30;;;;;;;23.71;57.65;98121.13;5002026;28;20021;-73
2021/06/17 07:40:13;;;;;;;8.65;5.65;;;;;;;23.78;56.90;98126.03;5003473;28;20069;-75
2021/06/17 07:42:41;;;;;;;8.68;6.80;;;;;;;23.86;56.89;98133.34;5000593;28;20505;-74
2021/06/17 07:45:08;;;;;;;8.30;6.13;;;;;;;23.92;56.77;98126.25;5003308;28;20439;-72
2021/06/17 07:47:34;;;;;;;8.73;5.55;;;;;;;24.07;56.34;98121.63;5007918;28;20058;-78
2021/06/17 07:49:59;;;;;;;10.90;6.38;;;;;;;24.13;55.20;98120.94;5004834;28;20089;-74
2021/06/17 07:52:25;;;;;;;12.48;5.90;;;;;;;24.21;55.95;98133.84;4984280;28;20026;-77
2021/06/17 07:54:50;;;;;;;12.98;5.75;;;;;;;24.34;55.65;98137.97;5003618;28;20036;-75
2021/06/17 07:57:16;;;;;;;8.27;5.18;;;;;;;24.43;55.08;98124.50;5001645;28;20072;-78
2021/06/17 07:59:42;;;;;;;8.15;6.10;;;;;;;24.61;54.56;98123.91;5002124;28;20029;-78
2021/06/17 08:02:08;;;;;;;11.77;5.72;;;;;;;24.56;54.45;98124.25;4985735;28;20468;-78
2021/06/17 08:04:33;;;;;;;10.52;5.80;;;;;;;24.62;54.03;98117.13;5001678;28;20026;-78
2021/06/17 08:06:58;;;;;;;7.90;5.47;;;;;;;24.82;53.35;98119.34;4999071;28;20121;-77
2021/06/17 08:09:25;;;;;;;13.02;5.95;;;;;;;24.95;52.46;98117.06;4998995;28;20086;-78
2021/06/17 08:11:52;;;;;;;7.95;5.43;;;;;;;25.07;51.93;98105.59;5002273;28;20064;-78
2021/06/17 08:14:21;;;;;;;11.80;4.80;;;;;;;25.04;52.33;98114.75;5002715;28;20026;-77
2021/06/17 08:16:47;;;;;;;12.27;5.88;;;;;;;24.92;52.23;98106.66;4999836;28;20031;-77
2021/06/17 08:19:13;;;;;;;6.10;5.10;;;;;;;24.93;52.68;98105.47;5001829;28;20022;-77
2021/06/17 08:21:38;;;;;;;6.20;4.43;;;;;;;25.15;51.94;98117.66;4982766;28;20498;-79
2021/06/17 08:24:04;;;;;;;7.43;4.35;;;;;;;25.39;51.03;98109.44;5004972;28;20033;-79
2021/06/17 08:26:32;;;;;;;9.80;5.05;;;;;;;25.56;50.56;98119.22;5012530;28;20544;-78
2021/06/17 08:28:57;;;;;;;11.70;4.75;;;;;;;25.69;50.50;98109.25;5012405;28;20030;-79
2021/06/17 08:31:23;;;;;;;9.25;5.50;;;;;;;25.93;49.73;98117.03;5011528;28;20026;-76
2021/06/17 08:33:49;;;;;;;8.43;4.53;;;;;;;25.91;49.70;98110.19;5013155;28;20109;-78
2021/06/17 08:36:16;;;;;;;6.70;4.57;;;;;;;26.12;48.63;98115.13;5012616;28;20081;-75
2021/06/17 08:38:42;;;;;;;4.97;4.05;;;;;;;26.20;48.13;98120.38;5012270;28;20084;-76
2021/06/17 08:41:08;;;;;;;6.95;4.47;;;;;;;26.24;48.26;98114.78;5012531;28;20029;-75
2021/06/17 08:43:34;;;;;;;7.97;4.82;;;;;;;26.29;48.25;98118.00;5011691;28;20053;-75
2021/06/17 08:45:59;;;;;;;10.00;4.75;;;;;;;26.30;48.34;98105.59;5012171;28;20065;-74
2021/06/17 08:48:24;;;;;;;9.13;5.43;;;;;;;26.47;48.18;98102.03;5012229;28;20034;-74
2021/06/17 08:50:53;;;;;;;10.30;4.93;;;;;;;26.68;47.72;98111.72;5012310;28;20368;-77
2021/06/17 08:53:20;;;;;;;11.90;4.88;;;;;;;26.47;48.43;98118.88;4994728;28;20102;-78
2021/06/17 08:55:49;;;;;;;7.82;4.82;;;;;;;26.63;47.20;98114.94;5012509;28;20084;-76
2021/06/17 08:58:15;;;;;;;6.40;4.68;;;;;;;26.70;45.99;98114.91;5012544;28;20128;-78
2021/06/17 09:00:42;;;;;;;8.68;5.53;;;;;;;26.69;47.00;98099.28;5012649;28;20122;-75
2021/06/17 09:03:18;;;;;;;7.47;5.40;;;;;;;26.66;46.49;98108.53;5012301;28;20026;-75
2021/06/17 09:06:33;;;;;;;7.88;4.72;;;;;;;26.68;47.04;98083.66;5012610;28;20364;-74
2021/06/17 09:09:00;;;;;;;14.75;5.95;;;;;;;26.85;46.59;98092.13;4994787;28;20041;-73
2021/06/17 09:11:27;;;;;;;9.55;5.93;;;;;;;26.91;45.79;98075.69;5012261;28;20024;-78
2021/06/17 09:14:13;;;;;;;10.20;5.18;;;;;;;26.94;46.02;98094.56;4994110;28;20511;-78
2021/06/17 09:16:39;;;;;;;9.75;4.78;;;;;;;26.83;46.10;98091.72;5011818;28;20025;-77
2021/06/17 09:19:04;;;;;;;8.13;3.63;;;;;;;27.01;45.97;98081.28;5011889;28;20057;-78
2021/06/17 09:21:30;;;;;;;10.77;4.35;;;;;;;27.21;45.72;98084.50;5010133;28;20037;-78
2021/06/17 09:23:55;;;;;;;4.85;4.13;;;;;;;27.24;44.64;98086.53;5010185;28;20405;-76
2021/06/17 09:26:23;;;;;;;7.30;3.60;;;;;;;27.14;43.68;98078.91;4993984;28;20138;-77
2021/06/17 09:31:28;;;;;;;10.77;4.18;;;;;;;27.32;41.86;98074.06;5012319;28;20045;-81
2021/06/17 09:33:55;;;;;;;9.35;4.38;;;;;;;27.28;41.04;98070.47;5000137;28;20053;-76
2021/06/17 09:36:32;;;;;;;4.13;3.22;;;;;;;27.43;40.50;98063.66;5000339;28;20034;-78
2021/06/17 09:39:03;;;;;;;5.22;4.00;;;;;;;27.42;40.63;98072.44;5015104;28;20038;-79
2021/06/17 09:41:39;;;;;;;10.73;4.15;;;;;;;27.54;41.78;98058.78;5010565;28;20034;-77
2021/06/17 09:44:26;;;;;;;6.65;3.42;;;;;;;27.28;42.36;98072.47;5011767;28;20506;-76
2021/06/17 09:47:18;;;;;;;4.97;3.80;;;;;;;27.10;42.90;98069.66;5012497;28;20038;-75
2021/06/17 09:49:45;;;;;;;6.35;4.53;;;;;;;27.22;43.25;98063.66;5017588;28;20026;-76
2021/06/17 09:52:12;;;;;;;7.75;3.50;;;;;;;27.41;41.60;98056.81;4995836;28;20065;-78
2021/06/17 09:54:43;;;;;;;6.15;3.25;;;;;;;27.47;41.96;98047.56;5011169;28;20502;-78
2021/06/17 09:57:11;;;;;;;5.65;4.25;;;;;;;27.61;41.77;98050.34;4993694;28;20091;-77
2021/06/17 09:59:45;;;;;;;4.25;3.20;;;;;;;27.65;41.47;98053.97;5011329;28;20029;-76
2021/06/17 10:02:17;;;;;;;3.47;2.95;;;;;;;27.57;41.27;98052.38;5003598;28;20061;-79
2021/06/17 10:04:43;;;;;;;3.70;3.40;;;;;;;27.59;40.45;98049.97;5001114;28;20022;-77
2021/06/17 10:07:09;;;;;;;3.47;3.15;;;;;;;27.53;40.53;98054.41;4981925;28;20479;-76
2021/06/17 10:09:34;;;;;;;7.85;3.60;;;;;;;27.50;41.42;98052.38;5003434;28;20064;-76
2021/06/17 10:12:00;;;;;;;7.25;4.25;;;;;;;27.39;41.87;98045.94;5000814;28;20034;-76
2021/06/17 10:14:28;;;;;;;5.80;3.70;;;;;;;27.40;42.43;98047.56;5006958;28;20062;-77
2021/06/17 10:16:53;;;;;;;9.50;4.22;;;;;;;27.50;42.79;98041.13;4980811;28;20041;-76
2021/06/17 10:19:19;;;;;;;7.07;3.67;;;;;;;27.75;42.88;98040.28;4991263;28;20027;-78
2021/06/17 10:21:47;;;;;;;9.10;3.92;;;;;;;27.93;43.13;98035.38;4996046;28;20034;-77
2021/06/17 10:24:19;;;;;;;5.30;3.40;;;;;;;28.08;42.32;98036.94;4995689;28;20037;-77
2021/06/17 10:26:50;;;;;;;4.25;3.45;;;;;;;28.17;42.07;98029.66;4997116;28;20061;-78
2021/06/17 10:29:34;;;;;;;7.93;4.18;;;;;;;28.41;41.42;98033.53;4996457;28;20045;-78
2021/06/17 10:32:00;;;;;;;9.50;4.13;;;;;;;28.37;41.48;98027.16;4988454;28;20380;-78
2021/06/17 10:34:34;;;;;;;5.85;3.83;;;;;;;28.34;41.34;98025.16;4998048;28;20179;-79
2021/06/17 10:37:25;;;;;;;5.45;3.80;;;;;;;28.34;41.34;98022.34;4999326;28;20535;-78
2021/06/17 10:39:55;;;;;;;6.90;3.72;;;;;;;28.29;41.39;98022.75;4989776;28;20554;-77
2021/06/17 10:42:29;;;;;;;6.45;4.28;;;;;;;28.09;42.29;98018.88;4997698;28;20057;-80
2021/06/17 10:45:02;;;;;;;7.28;4.03;;;;;;;28.08;41.83;98011.63;4983511;28;20474;-78
2021/06/17 10:50:15;;;;;;;12.38;3.78;;;;;;;28.30;41.96;98012.31;4999872;28;20109;-79
2021/06/17 10:52:42;;;;;;;4.93;3.83;;;;;;;28.35;41.34;97998.59;4988656;28;20030;-78
2021/06/17 10:55:17;;;;;;;5.68;3.92;;;;;;;28.52;40.66;97999.69;4971735;28;20030;-79
2021/06/17 10:57:49;;;;;;;4.78;4.07;;;;;;;28.50;39.98;98002.13;4990043;28;20038;-79
2021/06/17 11:00:30;;;;;;;4.43;3.55;;;;;;;28.54;40.40;97995.25;4972527;28;20550;-81
2021/06/17 11:02:57;;;;;;;5.40;3.63;;;;;;;28.38;41.04;97992.16;4995471;28;20360;-78
2021/06/17 11:05:29;;;;;;;8.88;3.58;;;;;;;28.48;40.75;97982.84;5009808;28;20050;-78
2021/06/17 11:08:16;;;;;;;6.05;3.33;;;;;;;28.63;41.20;97987.13;5009473;28;20033;-77
2021/06/17 11:10:57;;;;;;;6.00;3.33;;;;;;;28.79;40.40;97988.69;4993487;28;20030;-78
2021/06/17 11:13:30;;;;;;;4.15;3.75;;;;;;;28.65;40.07;97984.75;5004107;28;20087;-76
2021/06/17 11:16:05;;;;;;;5.05;3.85;;;;;;;28.59;39.88;97966.66;5007989;28;20394;-77
2021/06/17 11:21:30;;;;;;;4.30;2.90;;;;;;;28.35;39.50;97964.81;5009274;28;20045;-78
2021/06/17 11:24:09;;;;;;;5.80;3.45;;;;;;;28.33;39.44;97958.81;5001126;28;20449;-79
2021/06/17 11:26:41;;;;;;;5.03;3.83;;;;;;;28.48;40.40;97960.31;5001415;28;20085;-79
2021/06/17 11:29:36;;;;;;;7.35;3.95;;;;;;;28.69;40.12;97965.78;5006435;28;20025;-80
2021/06/17 11:32:03;;;;;;;5.38;3.92;;;;;;;28.66;39.58;97966.63;4988379;28;20491;-78
2021/06/17 11:34:28;;;;;;;6.28;3.92;;;;;;;28.71;39.30;97959.75;5002017;28;20029;-78
2021/06/17 11:36:56;;;;;;;5.22;3.70;;;;;;;28.85;38.61;97956.81;5003755;28;20018;-77
2021/06/17 11:39:25;;;;;;;5.20;2.80;;;;;;;28.88;38.36;97961.59;5001932;28;20033;-77
2021/06/17 11:41:54;;;;;;;5.53;3.47;;;;;;;28.83;38.24;97964.06;4985998;28;20026;-77
2021/06/17 11:44:25;;;;;;;12.43;3.70;;;;;;;28.80;38.15;97964.91;5001693;28;20056;-76
2021/06/17 11:47:08;;;;;;;3.85;3.28;;;;;;;28.89;38.06;97956.78;4999932;28;20380;-79
2021/06/17 11:49:36;;;;;;;3.08;2.78;;;;;;;28.97;38.68;97947.06;5000522;28;20125;-78